sensor_id;sensor_type;location;lat;lon;timestamp;P1;durP1;ratioP1;P2;durP2;ratioP2
74160;SDS011;62512;-46.434;168.382;2022-08-06T00:00:03;0.8;;;0.5;;
74160;SDS011;62512;-46.434;168.382;2022-08-06T00:01:01;1.1;;;0.7;;
74160;SDS011;62512;-46.434;168.382;2022-08-06T00:02:01;0.9;;;0.6;;
74160;SDS011;62512;-46.434;168.382;2022-08-06T00:03:01;1.7;;;0.5;;
74160;SDS011;62512;-46.434;168.382;2022-08-06T00:04:01;1.1;;;0.6;;
74160;SDS011;62512;-46.434;168.382;2022-08-06T00:05:02;1.2;;;0.6;;
74160;SDS011;62512;-46.434;168.382;2022-08-06T00:06:01;1.2;;;0.6;;
74160;SDS011;62512;-46.434;168.382;2022-08-06T00:07:01;1.7;;;0.8;;
74160;SDS011;62512;-46.434;168.382;2022-08-06T00:08:01;1.5;;;0.8;;
74160;SDS011;62512;-46.434;168.382;2022-08-06T00:09:02;1.7;;;1.0;;
74160;SDS011;62512;-46.434;168.382;2022-08-06T00:10:01;1.5;;;0.8;;
74160;SDS011;62512;-46.434;168.382;2022-08-06T00:11:01;1.6;;;0.6;;
74160;SDS011;62512;-46.434;168.382;2022-08-06T00:12:03;2.2;;;0.9;;
74160;SDS011;62512;-46.434;168.382;2022-08-06T00:13:02;1.9;;;1.0;;
74160;SDS011;62512;-46.434;168.382;2022-08-06T00:14:01;1.5;;;0.8;;
74160;SDS011;62512;-46.434;168.382;2022-08-06T00:15:03;1.2;;;0.9;;
74160;SDS011;62512;-46.434;168.382;2022-08-06T00:16:01;2.4;;;1.1;;
74160;SDS011;62512;-46.434;168.382;2022-08-06T00:17:01;0.9;;;0.6;;
74160;SDS011;62512;-46.434;168.382;2022-08-06T00:18:01;0.7;;;0.5;;
74160;SDS011;62512;-46.434;168.382;2022-08-06T00:19:01;0.7;;;0.4;;
74160;SDS011;62512;-46.434;168.382;2022-08-06T00:21:01;1.9;;;0.8;;
74160;SDS011;62512;-46.434;168.382;2022-08-06T00:22:01;1.8;;;0.8;;
74160;SDS011;62512;-46.434;168.382;2022-08-06T00:23:01;0.8;;;0.5;;
74160;SDS011;62512;-46.434;168.382;2022-08-06T00:24:01;1.4;;;0.4;;
74160;SDS011;62512;-46.434;168.382;2022-08-06T00:25:01;2.7;;;0.5;;
74160;SDS011;62512;-46.434;168.382;2022-08-06T00:26:01;0.9;;;0.4;;
74160;SDS011;62512;-46.434;168.382;2022-08-06T00:27:01;1.9;;;0.9;;
74160;SDS011;62512;-46.434;168.382;2022-08-06T00:28:01;0.7;;;0.6;;
74160;SDS011;62512;-46.434;168.382;2022-08-06T00:29:01;1.6;;;1.0;;
74160;SDS011;62512;-46.434;168.382;2022-08-06T00:30:01;1.1;;;0.7;;
74160;SDS011;62512;-46.434;168.382;2022-08-06T00:32:01;0.9;;;0.7;;
74160;SDS011;62512;-46.434;168.382;2022-08-06T00:33:01;1.4;;;0.7;;
74160;SDS011;62512;-46.434;168.382;2022-08-06T00:34:01;1.7;;;1.0;;
74160;SDS011;62512;-46.434;168.382;2022-08-06T00:35:02;2.7;;;1.3;;
74160;SDS011;62512;-46.434;168.382;2022-08-06T00:36:02;2.9;;;1.4;;
74160;SDS011;62512;-46.434;168.382;2022-08-06T00:37:01;1.9;;;1.1;;
74160;SDS011;62512;-46.434;168.382;2022-08-06T00:38:02;1.3;;;0.8;;
74160;SDS011;62512;-46.434;168.382;2022-08-06T00:41:02;2.4;;;0.9;;
74160;SDS011;62512;-46.434;168.382;2022-08-06T00:43:03;1.1;;;0.8;;
74160;SDS011;62512;-46.434;168.382;2022-08-06T00:44:02;1.7;;;0.9;;
74160;SDS011;62512;-46.434;168.382;2022-08-06T00:45:01;2.1;;;0.9;;
74160;SDS011;62512;-46.434;168.382;2022-08-06T00:46:01;1.7;;;0.9;;
74160;SDS011;62512;-46.434;168.382;2022-08-06T00:47:01;2.6;;;0.9;;
74160;SDS011;62512;-46.434;168.382;2022-08-06T00:48:01;1.9;;;0.7;;
74160;SDS011;62512;-46.434;168.382;2022-08-06T00:49:01;2.3;;;0.7;;
74160;SDS011;62512;-46.434;168.382;2022-08-06T00:50:02;0.7;;;0.5;;
74160;SDS011;62512;-46.434;168.382;2022-08-06T00:51:01;0.7;;;1.3;;
74160;SDS011;62512;-46.434;168.382;2022-08-06T00:52:01;2.3;;;0.7;;
74160;SDS011;62512;-46.434;168.382;2022-08-06T00:53:02;1.1;;;0.7;;
74160;SDS011;62512;-46.434;168.382;2022-08-06T00:54:01;1.9;;;0.9;;
74160;SDS011;62512;-46.434;168.382;2022-08-06T00:55:01;2.3;;;0.8;;
74160;SDS011;62512;-46.434;168.382;2022-08-06T00:56:01;1.1;;;0.7;;
74160;SDS011;62512;-46.434;168.382;2022-08-06T00:57:02;1.1;;;0.6;;
74160;SDS011;62512;-46.434;168.382;2022-08-06T00:58:04;1.1;;;0.6;;
74160;SDS011;62512;-46.434;168.382;2022-08-06T00:59:01;1.4;;;1.0;;
74160;SDS011;62512;-46.434;168.382;2022-08-06T01:00:01;1.2;;;0.6;;
74160;SDS011;62512;-46.434;168.382;2022-08-06T01:01:01;1.2;;;0.4;;
74160;SDS011;62512;-46.434;168.382;2022-08-06T01:02:01;2.1;;;0.6;;
74160;SDS011;62512;-46.434;168.382;2022-08-06T01:04:01;2.0;;;1.3;;
74160;SDS011;62512;-46.434;168.382;2022-08-06T01:05:01;1.6;;;0.4;;
74160;SDS011;62512;-46.434;168.382;2022-08-06T01:06:01;0.8;;;0.4;;
74160;SDS011;62512;-46.434;168.382;2022-08-06T01:07:01;0.8;;;0.6;;
74160;SDS011;62512;-46.434;168.382;2022-08-06T01:08:01;0.6;;;0.5;;
74160;SDS011;62512;-46.434;168.382;2022-08-06T01:10:01;1.0;;;0.9;;
74160;SDS011;62512;-46.434;168.382;2022-08-06T01:11:01;1.9;;;1.0;;
74160;SDS011;62512;-46.434;168.382;2022-08-06T01:12:01;1.8;;;0.8;;
74160;SDS011;62512;-46.434;168.382;2022-08-06T01:13:01;3.4;;;1.7;;
74160;SDS011;62512;-46.434;168.382;2022-08-06T01:14:01;2.1;;;1.3;;
74160;SDS011;62512;-46.434;168.382;2022-08-06T01:15:03;3.7;;;1.7;;
74160;SDS011;62512;-46.434;168.382;2022-08-06T01:16:12;0.7;;;0.5;;
74160;SDS011;62512;-46.434;168.382;2022-08-06T01:17:07;1.4;;;0.5;;
74160;SDS011;62512;-46.434;168.382;2022-08-06T01:24:15;1.1;;;0.5;;
74160;SDS011;62512;-46.434;168.382;2022-08-06T01:28:07;0.7;;;0.5;;
74160;SDS011;62512;-46.434;168.382;2022-08-06T01:30:05;1.0;;;0.5;;
74160;SDS011;62512;-46.434;168.382;2022-08-06T01:31:06;1.6;;;0.5;;
74160;SDS011;62512;-46.434;168.382;2022-08-06T01:32:06;0.5;;;0.5;;
74160;SDS011;62512;-46.434;168.382;2022-08-06T01:33:06;1.3;;;0.4;;
74160;SDS011;62512;-46.434;168.382;2022-08-06T01:34:07;2.4;;;0.6;;
74160;SDS011;62512;-46.434;168.382;2022-08-06T01:35:06;0.8;;;0.5;;
74160;SDS011;62512;-46.434;168.382;2022-08-06T01:36:06;0.9;;;0.4;;
74160;SDS011;62512;-46.434;168.382;2022-08-06T01:38:09;1.4;;;0.6;;
74160;SDS011;62512;-46.434;168.382;2022-08-06T01:39:01;0.9;;;0.6;;
74160;SDS011;62512;-46.434;168.382;2022-08-06T01:40:04;2.1;;;0.5;;
74160;SDS011;62512;-46.434;168.382;2022-08-06T01:41:05;2.0;;;0.8;;
74160;SDS011;62512;-46.434;168.382;2022-08-06T01:43:03;1.1;;;0.6;;
74160;SDS011;62512;-46.434;168.382;2022-08-06T01:44:03;1.6;;;0.6;;
74160;SDS011;62512;-46.434;168.382;2022-08-06T01:45:03;2.4;;;0.9;;
74160;SDS011;62512;-46.434;168.382;2022-08-06T01:46:02;1.2;;;1.0;;
74160;SDS011;62512;-46.434;168.382;2022-08-06T01:49:02;1.1;;;0.7;;
74160;SDS011;62512;-46.434;168.382;2022-08-06T01:50:05;0.9;;;0.7;;
74160;SDS011;62512;-46.434;168.382;2022-08-06T01:51:02;1.9;;;0.7;;
74160;SDS011;62512;-46.434;168.382;2022-08-06T01:52:02;2.3;;;0.8;;
74160;SDS011;62512;-46.434;168.382;2022-08-06T01:54:04;1.3;;;0.6;;
74160;SDS011;62512;-46.434;168.382;2022-08-06T01:55:02;0.9;;;0.6;;
74160;SDS011;62512;-46.434;168.382;2022-08-06T01:59:03;1.6;;;0.7;;
74160;SDS011;62512;-46.434;168.382;2022-08-06T02:00:03;1.9;;;0.6;;
74160;SDS011;62512;-46.434;168.382;2022-08-06T02:01:04;2.3;;;0.8;;
74160;SDS011;62512;-46.434;168.382;2022-08-06T02:02:05;2.7;;;0.8;;
74160;SDS011;62512;-46.434;168.382;2022-08-06T02:04:02;2.5;;;1.0;;
74160;SDS011;62512;-46.434;168.382;2022-08-06T02:05:02;2.2;;;1.4;;
74160;SDS011;62512;-46.434;168.382;2022-08-06T02:06:01;2.2;;;0.8;;
74160;SDS011;62512;-46.434;168.382;2022-08-06T02:07:03;1.1;;;0.7;;
74160;SDS011;62512;-46.434;168.382;2022-08-06T02:08:02;2.0;;;0.9;;
74160;SDS011;62512;-46.434;168.382;2022-08-06T02:12:11;2.4;;;1.4;;
74160;SDS011;62512;-46.434;168.382;2022-08-06T02:13:02;3.0;;;1.3;;
74160;SDS011;62512;-46.434;168.382;2022-08-06T02:14:02;2.6;;;1.1;;
74160;SDS011;62512;-46.434;168.382;2022-08-06T02:16:03;1.3;;;0.8;;
74160;SDS011;62512;-46.434;168.382;2022-08-06T02:17:02;2.3;;;0.8;;
74160;SDS011;62512;-46.434;168.382;2022-08-06T02:18:05;1.4;;;0.8;;
74160;SDS011;62512;-46.434;168.382;2022-08-06T02:19:03;2.5;;;1.2;;
74160;SDS011;62512;-46.434;168.382;2022-08-06T02:20:02;2.3;;;1.2;;
74160;SDS011;62512;-46.434;168.382;2022-08-06T02:21:03;3.4;;;1.0;;
74160;SDS011;62512;-46.434;168.382;2022-08-06T02:22:02;3.6;;;1.0;;
74160;SDS011;62512;-46.434;168.382;2022-08-06T02:23:03;1.6;;;1.2;;
74160;SDS011;62512;-46.434;168.382;2022-08-06T02:24:04;1.9;;;0.9;;
74160;SDS011;62512;-46.434;168.382;2022-08-06T02:25:04;1.9;;;1.2;;
74160;SDS011;62512;-46.434;168.382;2022-08-06T02:27:01;2.6;;;1.4;;
74160;SDS011;62512;-46.434;168.382;2022-08-06T02:28:03;3.7;;;2.7;;
74160;SDS011;62512;-46.434;168.382;2022-08-06T02:30:02;3.6;;;2.3;;
74160;SDS011;62512;-46.434;168.382;2022-08-06T02:31:01;3.9;;;2.0;;
74160;SDS011;62512;-46.434;168.382;2022-08-06T02:32:01;2.9;;;1.4;;
74160;SDS011;62512;-46.434;168.382;2022-08-06T02:33:02;3.6;;;2.0;;
74160;SDS011;62512;-46.434;168.382;2022-08-06T02:34:01;4.8;;;4.1;;
74160;SDS011;62512;-46.434;168.382;2022-08-06T02:35:01;6.9;;;4.1;;
74160;SDS011;62512;-46.434;168.382;2022-08-06T02:36:10;10.9;;;9.2;;
74160;SDS011;62512;-46.434;168.382;2022-08-06T02:37:23;13.2;;;10.8;;
74160;SDS011;62512;-46.434;168.382;2022-08-06T02:38:07;12.1;;;10.9;;
74160;SDS011;62512;-46.434;168.382;2022-08-06T02:40:08;8.1;;;6.9;;
74160;SDS011;62512;-46.434;168.382;2022-08-06T02:41:11;5.3;;;4.4;;
74160;SDS011;62512;-46.434;168.382;2022-08-06T02:42:07;11.4;;;9.4;;
74160;SDS011;62512;-46.434;168.382;2022-08-06T02:43:05;13.8;;;12.5;;
74160;SDS011;62512;-46.434;168.382;2022-08-06T02:44:07;19.8;;;17.9;;
74160;SDS011;62512;-46.434;168.382;2022-08-06T02:46:11;9.8;;;6.7;;
74160;SDS011;62512;-46.434;168.382;2022-08-06T02:47:06;4.8;;;3.4;;
74160;SDS011;62512;-46.434;168.382;2022-08-06T02:48:39;5.5;;;4.0;;
74160;SDS011;62512;-46.434;168.382;2022-08-06T02:49:08;14.7;;;13.1;;
74160;SDS011;62512;-46.434;168.382;2022-08-06T02:51:05;9.2;;;8.0;;
74160;SDS011;62512;-46.434;168.382;2022-08-06T02:52:08;10.9;;;7.0;;
74160;SDS011;62512;-46.434;168.382;2022-08-06T02:53:08;7.4;;;5.4;;
74160;SDS011;62512;-46.434;168.382;2022-08-06T02:54:06;4.9;;;4.3;;
74160;SDS011;62512;-46.434;168.382;2022-08-06T02:55:14;3.5;;;2.6;;
74160;SDS011;62512;-46.434;168.382;2022-08-06T02:56:06;3.9;;;1.8;;
74160;SDS011;62512;-46.434;168.382;2022-08-06T02:57:04;3.1;;;1.3;;
74160;SDS011;62512;-46.434;168.382;2022-08-06T03:00:05;3.6;;;1.3;;
74160;SDS011;62512;-46.434;168.382;2022-08-06T03:03:01;3.3;;;1.3;;
74160;SDS011;62512;-46.434;168.382;2022-08-06T03:05:03;3.2;;;1.9;;
74160;SDS011;62512;-46.434;168.382;2022-08-06T03:06:04;3.3;;;1.6;;
74160;SDS011;62512;-46.434;168.382;2022-08-06T03:07:05;3.7;;;1.3;;
74160;SDS011;62512;-46.434;168.382;2022-08-06T03:08:02;4.0;;;1.2;;
74160;SDS011;62512;-46.434;168.382;2022-08-06T03:09:03;3.3;;;1.5;;
74160;SDS011;62512;-46.434;168.382;2022-08-06T03:10:02;3.8;;;1.6;;
74160;SDS011;62512;-46.434;168.382;2022-08-06T03:11:02;2.0;;;1.2;;
74160;SDS011;62512;-46.434;168.382;2022-08-06T03:12:01;2.7;;;1.3;;
74160;SDS011;62512;-46.434;168.382;2022-08-06T03:13:03;2.9;;;1.1;;
74160;SDS011;62512;-46.434;168.382;2022-08-06T03:16:02;3.0;;;1.0;;
74160;SDS011;62512;-46.434;168.382;2022-08-06T03:17:01;3.5;;;1.4;;
74160;SDS011;62512;-46.434;168.382;2022-08-06T03:20:03;2.1;;;1.1;;
74160;SDS011;62512;-46.434;168.382;2022-08-06T03:21:02;3.0;;;1.2;;
74160;SDS011;62512;-46.434;168.382;2022-08-06T03:22:01;4.2;;;1.5;;
74160;SDS011;62512;-46.434;168.382;2022-08-06T03:23:05;2.0;;;1.1;;
74160;SDS011;62512;-46.434;168.382;2022-08-06T03:24:02;4.0;;;1.8;;
74160;SDS011;62512;-46.434;168.382;2022-08-06T03:25:02;3.8;;;1.5;;
74160;SDS011;62512;-46.434;168.382;2022-08-06T03:26:02;3.4;;;1.6;;
74160;SDS011;62512;-46.434;168.382;2022-08-06T03:27:03;2.5;;;1.3;;
74160;SDS011;62512;-46.434;168.382;2022-08-06T03:28:01;2.5;;;1.6;;
74160;SDS011;62512;-46.434;168.382;2022-08-06T03:29:01;2.1;;;1.3;;
74160;SDS011;62512;-46.434;168.382;2022-08-06T03:30:01;3.9;;;1.5;;
74160;SDS011;62512;-46.434;168.382;2022-08-06T03:31:02;3.1;;;1.8;;
74160;SDS011;62512;-46.434;168.382;2022-08-06T03:32:01;3.3;;;1.5;;
74160;SDS011;62512;-46.434;168.382;2022-08-06T03:33:04;3.6;;;1.2;;
74160;SDS011;62512;-46.434;168.382;2022-08-06T03:34:02;4.4;;;1.6;;
74160;SDS011;62512;-46.434;168.382;2022-08-06T03:35:03;2.4;;;1.3;;
74160;SDS011;62512;-46.434;168.382;2022-08-06T03:36:02;3.8;;;1.6;;
74160;SDS011;62512;-46.434;168.382;2022-08-06T03:37:02;2.5;;;1.2;;
74160;SDS011;62512;-46.434;168.382;2022-08-06T03:38:01;2.8;;;1.2;;
74160;SDS011;62512;-46.434;168.382;2022-08-06T03:39:05;2.8;;;1.5;;
74160;SDS011;62512;-46.434;168.382;2022-08-06T03:40:03;2.3;;;1.4;;
74160;SDS011;62512;-46.434;168.382;2022-08-06T03:41:01;3.7;;;1.7;;
74160;SDS011;62512;-46.434;168.382;2022-08-06T03:42:01;4.7;;;2.3;;
74160;SDS011;62512;-46.434;168.382;2022-08-06T03:43:01;3.3;;;1.5;;
74160;SDS011;62512;-46.434;168.382;2022-08-06T03:45:01;3.2;;;1.7;;
74160;SDS011;62512;-46.434;168.382;2022-08-06T03:48:03;2.3;;;1.5;;
74160;SDS011;62512;-46.434;168.382;2022-08-06T03:49:03;4.8;;;2.3;;
74160;SDS011;62512;-46.434;168.382;2022-08-06T03:51:03;3.6;;;2.0;;
74160;SDS011;62512;-46.434;168.382;2022-08-06T03:52:02;3.8;;;1.5;;
74160;SDS011;62512;-46.434;168.382;2022-08-06T03:53:03;2.2;;;1.7;;
74160;SDS011;62512;-46.434;168.382;2022-08-06T03:54:01;4.1;;;2.0;;
74160;SDS011;62512;-46.434;168.382;2022-08-06T03:55:03;5.6;;;3.3;;
74160;SDS011;62512;-46.434;168.382;2022-08-06T03:56:02;7.2;;;3.9;;
74160;SDS011;62512;-46.434;168.382;2022-08-06T04:01:04;7.0;;;3.3;;
74160;SDS011;62512;-46.434;168.382;2022-08-06T04:03:02;5.2;;;2.9;;
74160;SDS011;62512;-46.434;168.382;2022-08-06T04:05:02;6.7;;;2.9;;
74160;SDS011;62512;-46.434;168.382;2022-08-06T04:06:02;4.1;;;2.6;;
74160;SDS011;62512;-46.434;168.382;2022-08-06T04:07:02;5.0;;;2.8;;
74160;SDS011;62512;-46.434;168.382;2022-08-06T04:09:02;4.9;;;3.2;;
74160;SDS011;62512;-46.434;168.382;2022-08-06T04:10:01;6.5;;;3.2;;
74160;SDS011;62512;-46.434;168.382;2022-08-06T04:11:01;5.8;;;3.6;;
74160;SDS011;62512;-46.434;168.382;2022-08-06T04:12:02;6.6;;;3.3;;
74160;SDS011;62512;-46.434;168.382;2022-08-06T04:13:04;5.5;;;2.9;;
74160;SDS011;62512;-46.434;168.382;2022-08-06T04:14:01;5.9;;;3.7;;
74160;SDS011;62512;-46.434;168.382;2022-08-06T04:15:01;7.5;;;4.3;;
74160;SDS011;62512;-46.434;168.382;2022-08-06T04:16:01;8.0;;;4.4;;
74160;SDS011;62512;-46.434;168.382;2022-08-06T04:17:02;6.2;;;2.7;;
74160;SDS011;62512;-46.434;168.382;2022-08-06T04:18:01;6.0;;;3.0;;
74160;SDS011;62512;-46.434;168.382;2022-08-06T04:19:02;6.5;;;3.3;;
74160;SDS011;62512;-46.434;168.382;2022-08-06T04:20:01;6.2;;;3.5;;
74160;SDS011;62512;-46.434;168.382;2022-08-06T04:21:06;7.6;;;4.0;;
74160;SDS011;62512;-46.434;168.382;2022-08-06T04:22:01;7.6;;;3.9;;
74160;SDS011;62512;-46.434;168.382;2022-08-06T04:23:01;6.5;;;3.7;;
74160;SDS011;62512;-46.434;168.382;2022-08-06T04:24:01;6.8;;;2.9;;
74160;SDS011;62512;-46.434;168.382;2022-08-06T04:25:01;7.6;;;3.4;;
74160;SDS011;62512;-46.434;168.382;2022-08-06T04:26:02;5.1;;;3.1;;
74160;SDS011;62512;-46.434;168.382;2022-08-06T04:27:04;5.6;;;3.5;;
74160;SDS011;62512;-46.434;168.382;2022-08-06T04:28:02;6.8;;;2.9;;
74160;SDS011;62512;-46.434;168.382;2022-08-06T04:29:02;5.4;;;2.6;;
74160;SDS011;62512;-46.434;168.382;2022-08-06T04:30:01;6.4;;;3.0;;
74160;SDS011;62512;-46.434;168.382;2022-08-06T04:31:02;7.8;;;3.3;;
74160;SDS011;62512;-46.434;168.382;2022-08-06T04:32:02;6.5;;;3.5;;
74160;SDS011;62512;-46.434;168.382;2022-08-06T04:33:02;8.8;;;4.5;;
74160;SDS011;62512;-46.434;168.382;2022-08-06T04:34:01;8.1;;;4.0;;
74160;SDS011;62512;-46.434;168.382;2022-08-06T04:35:03;9.4;;;4.8;;
74160;SDS011;62512;-46.434;168.382;2022-08-06T04:37:01;10.1;;;5.5;;
74160;SDS011;62512;-46.434;168.382;2022-08-06T04:38:01;9.4;;;4.8;;
74160;SDS011;62512;-46.434;168.382;2022-08-06T04:39:01;8.4;;;4.5;;
74160;SDS011;62512;-46.434;168.382;2022-08-06T04:40:02;7.2;;;4.5;;
74160;SDS011;62512;-46.434;168.382;2022-08-06T04:41:02;8.5;;;4.8;;
74160;SDS011;62512;-46.434;168.382;2022-08-06T04:42:01;8.3;;;5.4;;
74160;SDS011;62512;-46.434;168.382;2022-08-06T04:43:04;8.8;;;4.9;;
74160;SDS011;62512;-46.434;168.382;2022-08-06T04:44:01;8.6;;;5.3;;
74160;SDS011;62512;-46.434;168.382;2022-08-06T04:45:01;9.6;;;5.6;;
74160;SDS011;62512;-46.434;168.382;2022-08-06T04:46:02;10.1;;;5.7;;
74160;SDS011;62512;-46.434;168.382;2022-08-06T04:47:01;10.5;;;5.4;;
74160;SDS011;62512;-46.434;168.382;2022-08-06T04:48:03;6.9;;;4.8;;
74160;SDS011;62512;-46.434;168.382;2022-08-06T04:49:01;8.3;;;4.4;;
74160;SDS011;62512;-46.434;168.382;2022-08-06T04:50:01;8.0;;;4.3;;
74160;SDS011;62512;-46.434;168.382;2022-08-06T04:51:03;7.6;;;5.2;;
74160;SDS011;62512;-46.434;168.382;2022-08-06T04:52:01;10.7;;;6.4;;
74160;SDS011;62512;-46.434;168.382;2022-08-06T04:53:08;8.6;;;5.1;;
74160;SDS011;62512;-46.434;168.382;2022-08-06T04:54:04;10.5;;;6.9;;
74160;SDS011;62512;-46.434;168.382;2022-08-06T04:55:01;13.9;;;8.4;;
74160;SDS011;62512;-46.434;168.382;2022-08-06T04:56:01;12.0;;;8.1;;
74160;SDS011;62512;-46.434;168.382;2022-08-06T04:57:01;8.0;;;5.3;;
74160;SDS011;62512;-46.434;168.382;2022-08-06T04:58:02;8.0;;;5.1;;
74160;SDS011;62512;-46.434;168.382;2022-08-06T04:59:01;7.8;;;5.5;;
74160;SDS011;62512;-46.434;168.382;2022-08-06T05:00:01;10.5;;;6.8;;
74160;SDS011;62512;-46.434;168.382;2022-08-06T05:01:01;10.6;;;6.4;;
74160;SDS011;62512;-46.434;168.382;2022-08-06T05:02:01;9.8;;;6.5;;
74160;SDS011;62512;-46.434;168.382;2022-08-06T05:03:01;7.7;;;3.8;;
74160;SDS011;62512;-46.434;168.382;2022-08-06T05:04:01;4.7;;;3.1;;
74160;SDS011;62512;-46.434;168.382;2022-08-06T05:05:01;3.3;;;2.8;;
74160;SDS011;62512;-46.434;168.382;2022-08-06T05:08:03;5.1;;;2.2;;
74160;SDS011;62512;-46.434;168.382;2022-08-06T05:09:03;3.8;;;2.9;;
74160;SDS011;62512;-46.434;168.382;2022-08-06T05:10:01;7.2;;;3.5;;
74160;SDS011;62512;-46.434;168.382;2022-08-06T05:11:05;5.9;;;3.7;;
74160;SDS011;62512;-46.434;168.382;2022-08-06T05:12:04;6.7;;;4.3;;
74160;SDS011;62512;-46.434;168.382;2022-08-06T05:13:02;5.9;;;3.0;;
74160;SDS011;62512;-46.434;168.382;2022-08-06T05:14:04;6.0;;;2.5;;
74160;SDS011;62512;-46.434;168.382;2022-08-06T05:15:06;5.9;;;3.5;;
74160;SDS011;62512;-46.434;168.382;2022-08-06T05:16:04;8.2;;;4.6;;
74160;SDS011;62512;-46.434;168.382;2022-08-06T05:17:02;8.8;;;4.6;;
74160;SDS011;62512;-46.434;168.382;2022-08-06T05:18:06;8.1;;;4.0;;
74160;SDS011;62512;-46.434;168.382;2022-08-06T05:19:05;7.1;;;3.9;;
74160;SDS011;62512;-46.434;168.382;2022-08-06T05:20:16;6.1;;;3.8;;
74160;SDS011;62512;-46.434;168.382;2022-08-06T05:21:02;6.7;;;3.9;;
74160;SDS011;62512;-46.434;168.382;2022-08-06T05:22:02;5.8;;;3.7;;
74160;SDS011;62512;-46.434;168.382;2022-08-06T05:23:06;7.9;;;4.2;;
74160;SDS011;62512;-46.434;168.382;2022-08-06T05:24:02;7.9;;;4.1;;
74160;SDS011;62512;-46.434;168.382;2022-08-06T05:25:01;5.6;;;4.0;;
74160;SDS011;62512;-46.434;168.382;2022-08-06T05:26:01;6.2;;;3.7;;
74160;SDS011;62512;-46.434;168.382;2022-08-06T05:27:01;6.5;;;3.8;;
74160;SDS011;62512;-46.434;168.382;2022-08-06T05:29:01;8.1;;;3.7;;
74160;SDS011;62512;-46.434;168.382;2022-08-06T05:30:02;5.8;;;3.4;;
74160;SDS011;62512;-46.434;168.382;2022-08-06T05:32:01;4.3;;;2.5;;
74160;SDS011;62512;-46.434;168.382;2022-08-06T05:33:01;4.1;;;2.8;;
74160;SDS011;62512;-46.434;168.382;2022-08-06T05:34:04;4.8;;;2.3;;
74160;SDS011;62512;-46.434;168.382;2022-08-06T05:35:01;5.0;;;2.8;;
74160;SDS011;62512;-46.434;168.382;2022-08-06T05:36:02;7.2;;;3.1;;
74160;SDS011;62512;-46.434;168.382;2022-08-06T05:37:01;4.0;;;2.7;;
74160;SDS011;62512;-46.434;168.382;2022-08-06T05:39:01;4.6;;;1.9;;
74160;SDS011;62512;-46.434;168.382;2022-08-06T05:40:01;5.0;;;2.5;;
74160;SDS011;62512;-46.434;168.382;2022-08-06T05:41:01;3.9;;;2.3;;
74160;SDS011;62512;-46.434;168.382;2022-08-06T05:43:02;5.1;;;2.6;;
74160;SDS011;62512;-46.434;168.382;2022-08-06T05:44:01;3.2;;;2.2;;
74160;SDS011;62512;-46.434;168.382;2022-08-06T05:45:01;4.1;;;2.3;;
74160;SDS011;62512;-46.434;168.382;2022-08-06T05:46:09;4.6;;;2.4;;
74160;SDS011;62512;-46.434;168.382;2022-08-06T05:47:06;5.2;;;2.7;;
74160;SDS011;62512;-46.434;168.382;2022-08-06T05:48:03;7.5;;;3.7;;
74160;SDS011;62512;-46.434;168.382;2022-08-06T05:49:06;9.2;;;4.3;;
74160;SDS011;62512;-46.434;168.382;2022-08-06T05:50:05;9.7;;;5.1;;
74160;SDS011;62512;-46.434;168.382;2022-08-06T05:51:08;17.4;;;8.3;;
74160;SDS011;62512;-46.434;168.382;2022-08-06T05:53:11;9.4;;;5.1;;
74160;SDS011;62512;-46.434;168.382;2022-08-06T05:54:13;9.1;;;4.4;;
74160;SDS011;62512;-46.434;168.382;2022-08-06T05:55:08;12.4;;;6.9;;
74160;SDS011;62512;-46.434;168.382;2022-08-06T05:56:06;16.4;;;8.0;;
74160;SDS011;62512;-46.434;168.382;2022-08-06T05:57:06;8.1;;;4.3;;
74160;SDS011;62512;-46.434;168.382;2022-08-06T05:58:04;6.6;;;4.1;;
74160;SDS011;62512;-46.434;168.382;2022-08-06T05:59:04;6.3;;;4.0;;
74160;SDS011;62512;-46.434;168.382;2022-08-06T06:00:04;8.7;;;4.9;;
74160;SDS011;62512;-46.434;168.382;2022-08-06T06:01:03;11.1;;;6.8;;
74160;SDS011;62512;-46.434;168.382;2022-08-06T06:02:01;15.3;;;8.3;;
74160;SDS011;62512;-46.434;168.382;2022-08-06T06:03:04;9.8;;;5.7;;
74160;SDS011;62512;-46.434;168.382;2022-08-06T06:04:02;16.3;;;8.2;;
74160;SDS011;62512;-46.434;168.382;2022-08-06T06:05:01;13.7;;;8.0;;
74160;SDS011;62512;-46.434;168.382;2022-08-06T06:06:02;8.1;;;5.0;;
74160;SDS011;62512;-46.434;168.382;2022-08-06T06:07:01;6.2;;;3.6;;
74160;SDS011;62512;-46.434;168.382;2022-08-06T06:08:01;8.0;;;5.1;;
74160;SDS011;62512;-46.434;168.382;2022-08-06T06:09:01;9.6;;;6.1;;
74160;SDS011;62512;-46.434;168.382;2022-08-06T06:10:03;9.8;;;5.7;;
74160;SDS011;62512;-46.434;168.382;2022-08-06T06:13:01;9.0;;;5.0;;
74160;SDS011;62512;-46.434;168.382;2022-08-06T06:14:01;9.9;;;6.0;;
74160;SDS011;62512;-46.434;168.382;2022-08-06T06:19:12;8.1;;;4.8;;
74160;SDS011;62512;-46.434;168.382;2022-08-06T06:21:09;9.6;;;5.3;;
74160;SDS011;62512;-46.434;168.382;2022-08-06T06:22:25;8.2;;;4.4;;
74160;SDS011;62512;-46.434;168.382;2022-08-06T06:23:36;8.6;;;4.9;;
74160;SDS011;62512;-46.434;168.382;2022-08-06T06:28:12;15.2;;;8.7;;
74160;SDS011;62512;-46.434;168.382;2022-08-06T06:31:11;11.6;;;6.8;;
74160;SDS011;62512;-46.434;168.382;2022-08-06T06:33:17;11.5;;;6.9;;
74160;SDS011;62512;-46.434;168.382;2022-08-06T06:34:10;10.1;;;6.4;;
74160;SDS011;62512;-46.434;168.382;2022-08-06T06:36:05;8.5;;;5.2;;
74160;SDS011;62512;-46.434;168.382;2022-08-06T06:37:15;9.6;;;5.6;;
74160;SDS011;62512;-46.434;168.382;2022-08-06T06:41:10;8.1;;;5.5;;
74160;SDS011;62512;-46.434;168.382;2022-08-06T06:42:11;8.0;;;5.0;;
74160;SDS011;62512;-46.434;168.382;2022-08-06T06:47:05;7.4;;;4.5;;
74160;SDS011;62512;-46.434;168.382;2022-08-06T06:49:07;7.5;;;4.1;;
74160;SDS011;62512;-46.434;168.382;2022-08-06T06:50:07;6.9;;;4.0;;
74160;SDS011;62512;-46.434;168.382;2022-08-06T06:51:06;7.9;;;4.3;;
74160;SDS011;62512;-46.434;168.382;2022-08-06T06:52:10;7.9;;;4.9;;
74160;SDS011;62512;-46.434;168.382;2022-08-06T06:53:01;10.2;;;6.2;;
74160;SDS011;62512;-46.434;168.382;2022-08-06T06:54:01;10.0;;;6.4;;
74160;SDS011;62512;-46.434;168.382;2022-08-06T06:55:08;10.1;;;6.6;;
74160;SDS011;62512;-46.434;168.382;2022-08-06T06:56:02;9.2;;;5.8;;
74160;SDS011;62512;-46.434;168.382;2022-08-06T06:57:01;10.2;;;5.8;;
74160;SDS011;62512;-46.434;168.382;2022-08-06T06:59:06;11.0;;;5.9;;
74160;SDS011;62512;-46.434;168.382;2022-08-06T07:00:03;14.2;;;6.6;;
74160;SDS011;62512;-46.434;168.382;2022-08-06T07:01:02;11.0;;;5.5;;
74160;SDS011;62512;-46.434;168.382;2022-08-06T07:02:02;13.0;;;6.0;;
74160;SDS011;62512;-46.434;168.382;2022-08-06T07:03:02;9.6;;;4.6;;
74160;SDS011;62512;-46.434;168.382;2022-08-06T07:04:03;10.7;;;5.2;;
74160;SDS011;62512;-46.434;168.382;2022-08-06T07:05:03;12.1;;;6.4;;
74160;SDS011;62512;-46.434;168.382;2022-08-06T07:06:02;14.3;;;6.8;;
74160;SDS011;62512;-46.434;168.382;2022-08-06T07:07:02;11.8;;;5.7;;
74160;SDS011;62512;-46.434;168.382;2022-08-06T07:08:03;11.5;;;6.3;;
74160;SDS011;62512;-46.434;168.382;2022-08-06T07:09:02;12.0;;;6.9;;
74160;SDS011;62512;-46.434;168.382;2022-08-06T07:10:02;11.1;;;6.3;;
74160;SDS011;62512;-46.434;168.382;2022-08-06T07:11:01;14.2;;;6.5;;
74160;SDS011;62512;-46.434;168.382;2022-08-06T07:12:02;12.1;;;6.2;;
74160;SDS011;62512;-46.434;168.382;2022-08-06T07:13:01;15.4;;;7.1;;
74160;SDS011;62512;-46.434;168.382;2022-08-06T07:14:02;16.9;;;8.7;;
74160;SDS011;62512;-46.434;168.382;2022-08-06T07:15:03;15.0;;;7.2;;
74160;SDS011;62512;-46.434;168.382;2022-08-06T07:16:02;14.0;;;6.3;;
74160;SDS011;62512;-46.434;168.382;2022-08-06T07:17:02;13.2;;;6.7;;
74160;SDS011;62512;-46.434;168.382;2022-08-06T07:18:02;11.7;;;5.9;;
74160;SDS011;62512;-46.434;168.382;2022-08-06T07:19:03;11.0;;;6.3;;
74160;SDS011;62512;-46.434;168.382;2022-08-06T07:20:05;10.4;;;5.2;;
74160;SDS011;62512;-46.434;168.382;2022-08-06T07:21:02;10.6;;;5.4;;
74160;SDS011;62512;-46.434;168.382;2022-08-06T07:22:01;9.9;;;6.0;;